createdAt,value
2023-02-14T00:00:33.486Z,20.08
2023-02-14T00:03:02.836Z,19.42
2023-02-14T00:05:36.989Z,17.20
2023-02-14T00:08:05.840Z,24.70
2023-02-14T00:10:49.636Z,22.27
2023-02-14T00:13:18.752Z,22.38
2023-02-14T00:15:48.921Z,21.42
2023-02-14T00:18:19.671Z,21.80
2023-02-14T00:20:48.694Z,20.58
2023-02-14T00:23:17.482Z,25.08
2023-02-14T00:25:49.263Z,26.17
2023-02-14T00:28:23.332Z,23.52
2023-02-14T00:30:53.636Z,21.73
2023-02-14T00:33:27.218Z,20.90
2023-02-14T00:35:57.935Z,19.65
2023-02-14T00:38:26.887Z,17.85
2023-02-14T00:40:56.364Z,22.45
2023-02-14T00:43:46.402Z,17.98
2023-02-14T00:46:23.925Z,19.85
2023-02-14T00:48:53.983Z,17.83
2023-02-14T00:51:26.194Z,21.13
2023-02-14T00:53:57.918Z,19.90
2023-02-14T00:56:35.373Z,20.25
2023-02-14T00:59:03.963Z,18.38
2023-02-14T01:01:37.288Z,22.05
2023-02-14T01:04:06.400Z,24.13
2023-02-14T01:06:34.942Z,20.45
2023-02-14T01:09:04.102Z,22.50
2023-02-14T01:11:36.116Z,21.80
2023-02-14T01:14:04.797Z,18.23
2023-02-14T01:16:33.573Z,24.13
2023-02-14T01:19:06.636Z,21.63
2023-02-14T01:21:36.065Z,23.15
2023-02-14T01:24:09.412Z,21.77
2023-02-14T01:26:43.762Z,18.92
2023-02-14T01:29:12.235Z,17.55
2023-02-14T01:31:45.173Z,17.65
2023-02-14T01:34:15.768Z,18.13
2023-02-14T01:36:53.601Z,17.05
2023-02-14T01:39:22.241Z,16.98
2023-02-14T01:41:54.295Z,16.60
2023-02-14T01:45:05.075Z,26.75
2023-02-14T01:47:41.885Z,20.85
2023-02-14T01:50:16.488Z,20.33
2023-02-14T01:52:49.006Z,22.73
2023-02-14T01:55:21.115Z,19.20
2023-02-14T01:57:52.198Z,19.05
2023-02-14T02:00:42.382Z,18.02
2023-02-14T02:03:12.255Z,18.75
2023-02-14T02:05:47.083Z,17.17
2023-02-14T02:08:16.192Z,17.00
2023-02-14T02:10:47.941Z,19.58
2023-02-14T02:13:24.978Z,17.25
2023-02-14T02:16:14.560Z,18.83
2023-02-14T02:18:55.928Z,22.33
2023-02-14T02:21:58.896Z,22.23
2023-02-14T02:24:41.029Z,23.83
2023-02-14T02:27:49.237Z,26.98
2023-02-14T02:31:22.604Z,22.15
2023-02-14T02:34:28.882Z,26.75
2023-02-14T02:37:12.612Z,24.30
2023-02-14T02:39:58.832Z,24.65
2023-02-14T02:42:39.922Z,25.98
2023-02-14T02:45:15.186Z,24.25
2023-02-14T02:47:55.770Z,25.75
2023-02-14T02:50:46.644Z,21.25
2023-02-14T02:53:25.721Z,24.02
2023-02-14T02:56:19.415Z,24.67
2023-02-14T02:58:56.927Z,21.75
2023-02-14T03:01:29.745Z,23.30
2023-02-14T03:04:26.090Z,24.98
2023-02-14T03:06:55.466Z,20.92
2023-02-14T03:09:59.170Z,23.75
2023-02-14T03:13:03.066Z,26.60
2023-02-14T03:16:06.671Z,23.42
2023-02-14T03:18:55.173Z,21.88
2023-02-14T03:21:31.756Z,20.48
2023-02-14T03:24:08.948Z,27.40
2023-02-14T03:26:48.737Z,23.25
2023-02-14T03:29:37.629Z,21.98
2023-02-14T03:32:13.325Z,21.67
2023-02-14T03:35:05.387Z,21.92
2023-02-14T03:40:38.180Z,24.48
2023-02-14T03:43:15.363Z,25.95
2023-02-14T03:45:57.619Z,17.63
2023-02-14T03:48:28.804Z,24.05
2023-02-14T03:51:02.917Z,27.92
2023-02-14T03:54:07.245Z,25.08
2023-02-14T03:57:04.172Z,26.55
2023-02-14T03:59:38.086Z,24.83
2023-02-14T04:02:19.254Z,24.15
2023-02-14T04:05:03.278Z,28.75
2023-02-14T04:07:44.965Z,25.60
2023-02-14T04:10:16.470Z,27.05
2023-02-14T04:12:46.070Z,27.92
2023-02-14T04:15:19.809Z,26.80
2023-02-14T04:18:11.188Z,23.85
2023-02-14T04:20:50.787Z,29.50
2023-02-14T04:23:19.307Z,31.33
2023-02-14T04:25:53.639Z,32.28
2023-02-14T04:28:22.547Z,31.25
2023-02-14T04:30:52.909Z,28.75
2023-02-14T04:33:25.108Z,31.98
2023-02-14T04:35:56.578Z,28.55
2023-02-14T04:38:28.136Z,28.48
2023-02-14T04:40:56.920Z,28.33
2023-02-14T04:43:28.504Z,25.00
2023-02-14T04:45:59.482Z,31.40
2023-02-14T04:48:31.360Z,27.08
2023-02-14T04:51:02.528Z,25.55
2023-02-14T04:53:31.506Z,32.50
2023-02-14T04:56:00.218Z,33.30
2023-02-14T04:58:31.654Z,30.00
2023-02-14T05:01:04.709Z,34.47
2023-02-14T05:03:33.186Z,33.83
2023-02-14T05:06:01.884Z,34.53
2023-02-14T05:08:30.487Z,28.75
2023-02-14T05:10:59.904Z,28.15
2023-02-14T05:13:32.018Z,26.02
2023-02-14T05:16:04.935Z,29.00
2023-02-14T05:18:36.362Z,28.05
2023-02-14T05:21:05.385Z,32.60
2023-02-14T05:23:33.846Z,39.25
2023-02-14T05:26:02.320Z,27.95
2023-02-14T05:28:30.897Z,36.35
2023-02-14T05:30:59.738Z,30.20
2023-02-14T05:33:30.316Z,26.80
2023-02-14T05:36:00.483Z,25.85
2023-02-14T05:38:28.997Z,31.02
2023-02-14T05:40:57.497Z,31.63
2023-02-14T05:43:26.446Z,36.88
2023-02-14T05:45:55.537Z,27.10
2023-02-14T05:48:24.890Z,30.88
2023-02-14T05:50:54.761Z,26.25
2023-02-14T05:53:23.186Z,27.10
2023-02-14T05:55:51.700Z,29.92
2023-02-14T05:58:23.115Z,31.00
2023-02-14T06:00:51.886Z,31.38
2023-02-14T06:03:23.957Z,37.67
2023-02-14T06:05:53.562Z,37.38
2023-02-14T06:08:24.190Z,29.88
2023-02-14T06:10:55.774Z,57.25
2023-02-14T06:13:25.094Z,62.00
2023-02-14T06:15:58.616Z,53.47
2023-02-14T06:18:29.707Z,40.97
2023-02-14T06:20:59.288Z,43.83
2023-02-14T06:26:36.374Z,43.97
2023-02-14T06:29:13.115Z,41.97
2023-02-14T06:31:58.672Z,63.58
2023-02-14T06:34:29.783Z,63.35
2023-02-14T06:37:00.951Z,43.00
2023-02-14T06:39:34.452Z,43.45
2023-02-14T06:42:06.384Z,35.28
2023-02-14T06:44:41.137Z,36.80
2023-02-14T06:47:15.686Z,38.78
2023-02-14T06:49:47.360Z,38.95
2023-02-14T06:52:21.943Z,35.63
2023-02-14T06:54:51.943Z,36.08
2023-02-14T06:57:20.464Z,35.28
2023-02-14T06:59:52.045Z,37.35
2023-02-14T07:02:24.357Z,40.85
2023-02-14T07:05:02.322Z,36.30
2023-02-14T07:07:33.703Z,37.67
2023-02-14T07:10:04.021Z,33.17
2023-02-14T07:12:35.422Z,40.80
2023-02-14T07:15:03.803Z,33.78
2023-02-14T07:17:32.189Z,33.80
2023-02-14T07:20:00.562Z,43.15
2023-02-14T07:22:30.409Z,35.70
2023-02-14T07:24:59.833Z,37.92
2023-02-14T07:27:33.475Z,32.13
2023-02-14T07:30:02.361Z,27.90
2023-02-14T07:36:25.365Z,30.60
2023-02-14T07:38:57.080Z,31.80
2023-02-14T07:41:26.714Z,36.97
2023-02-14T07:44:00.450Z,29.42
2023-02-14T07:46:32.337Z,26.50
2023-02-14T07:49:01.118Z,30.63
2023-02-14T07:51:31.221Z,30.30
2023-02-14T07:54:33.169Z,30.70
2023-02-14T08:00:13.795Z,26.92
2023-02-14T08:02:52.513Z,27.88
2023-02-14T08:05:42.902Z,26.15
2023-02-14T08:15:55.480Z,23.40
2023-02-14T08:18:30.257Z,24.50
2023-02-14T08:20:59.592Z,25.70
2023-02-14T08:23:28.738Z,30.75
2023-02-14T08:26:03.615Z,27.85
2023-02-14T08:28:35.023Z,27.48
2023-02-14T08:31:10.292Z,26.05
2023-02-14T08:47:38.531Z,22.10
2023-02-14T08:50:10.326Z,23.55
2023-02-14T08:52:40.261Z,25.02
2023-02-14T08:55:09.155Z,27.08
2023-02-14T08:57:37.759Z,28.55
2023-02-14T09:00:07.415Z,30.70
2023-02-14T09:02:37.877Z,27.75
2023-02-14T09:05:08.178Z,20.40
2023-02-14T09:07:36.785Z,27.48
2023-02-14T09:10:05.553Z,24.33
2023-02-14T09:12:40.340Z,26.70
2023-02-14T09:15:11.396Z,28.60
2023-02-14T09:17:44.224Z,30.83
2023-02-14T09:20:14.422Z,31.15
2023-02-14T09:22:43.587Z,25.02
2023-02-14T09:25:12.828Z,26.20
2023-02-14T09:27:41.675Z,25.65
2023-02-14T09:30:11.904Z,22.13
2023-02-14T09:32:41.974Z,22.98
2023-02-14T09:35:10.452Z,36.42
2023-02-14T09:37:56.008Z,31.58
2023-02-14T09:40:25.691Z,25.38
2023-02-14T09:43:18.903Z,28.27
2023-02-14T09:45:54.487Z,29.00
2023-02-14T09:48:30.305Z,23.73
2023-02-14T09:51:02.582Z,25.25
2023-02-14T09:53:34.442Z,23.25
2023-02-14T09:56:10.316Z,25.05
2023-02-14T09:58:47.401Z,27.70
2023-02-14T10:01:22.683Z,30.08
2023-02-14T10:04:04.526Z,26.80
2023-02-14T10:06:50.519Z,27.05
2023-02-14T10:09:44.519Z,28.63
2023-02-14T10:12:21.009Z,26.98
2023-02-14T10:14:50.158Z,26.88
2023-02-14T10:17:23.488Z,27.63
2023-02-14T10:19:58.021Z,25.10
2023-02-14T10:22:34.187Z,26.92
2023-02-14T10:25:07.400Z,25.25
2023-02-14T10:27:39.725Z,24.65
2023-02-14T10:30:14.945Z,27.35
2023-02-14T10:32:49.695Z,25.08
2023-02-14T10:35:35.190Z,26.80
2023-02-14T10:38:17.404Z,35.92
2023-02-14T10:41:08.617Z,28.83
2023-02-14T10:43:46.894Z,22.88
2023-02-14T10:46:24.461Z,30.73
2023-02-14T10:49:02.253Z,25.33
2023-02-14T10:51:40.033Z,32.63
2023-02-14T10:54:19.985Z,25.60
2023-02-14T10:56:52.541Z,30.08
2023-02-14T10:59:26.749Z,24.50
2023-02-14T11:01:57.242Z,27.83
2023-02-14T11:04:26.762Z,25.02
2023-02-14T11:06:56.641Z,27.85
2023-02-14T11:09:25.250Z,28.00
2023-02-14T11:11:56.746Z,25.67
2023-02-14T11:14:28.805Z,26.70
2023-02-14T11:16:58.801Z,28.20
2023-02-14T11:19:30.615Z,26.67
2023-02-14T11:22:02.689Z,27.77
2023-02-14T11:24:34.945Z,25.25
2023-02-14T11:27:06.350Z,30.63
2023-02-14T11:29:37.659Z,30.05
2023-02-14T11:32:12.221Z,30.05
2023-02-14T11:34:42.730Z,31.35
2023-02-14T11:37:31.571Z,26.02
2023-02-14T11:40:02.385Z,29.52
2023-02-14T11:42:39.522Z,29.38
2023-02-14T11:45:09.034Z,27.85
2023-02-14T11:47:43.068Z,32.92
2023-02-14T11:50:24.871Z,32.63
2023-02-14T11:52:57.645Z,29.92
2023-02-14T11:55:29.495Z,25.20
2023-02-14T11:57:59.053Z,28.48
2023-02-14T12:00:31.291Z,34.80
2023-02-14T12:03:03.157Z,27.40
2023-02-14T12:05:34.964Z,29.35
2023-02-14T12:08:08.154Z,32.70
2023-02-14T12:10:38.018Z,26.80
2023-02-14T12:13:26.750Z,32.97
2023-02-14T12:15:57.188Z,31.85
2023-02-14T12:19:01.008Z,32.00
2023-02-14T12:21:42.373Z,27.73
2023-02-14T12:24:24.696Z,31.63
2023-02-14T12:27:01.750Z,29.00
2023-02-14T12:29:35.486Z,30.85
2023-02-14T12:32:22.482Z,27.38
2023-02-14T12:34:51.669Z,31.10
2023-02-14T12:37:32.219Z,26.15
2023-02-14T12:40:12.130Z,32.25
2023-02-14T12:43:02.716Z,29.88
2023-02-14T12:45:57.966Z,32.00
2023-02-14T12:48:38.142Z,28.73
2023-02-14T12:51:11.188Z,30.88
2023-02-14T12:53:57.229Z,28.08
2023-02-14T12:56:41.173Z,28.90
2023-02-14T12:59:25.917Z,26.50
2023-02-14T13:02:26.844Z,27.88
2023-02-14T13:05:07.847Z,30.98
2023-02-14T13:07:57.229Z,29.42
2023-02-14T13:10:37.958Z,26.27
2023-02-14T13:13:16.440Z,28.30
2023-02-14T13:15:54.688Z,29.38
2023-02-14T13:18:34.926Z,27.40
2023-02-14T13:21:10.064Z,23.25
2023-02-14T13:23:41.649Z,28.40
2023-02-14T13:26:15.706Z,27.50
2023-02-14T13:28:51.784Z,27.27
2023-02-14T13:31:21.546Z,26.50
2023-02-14T13:33:53.306Z,29.23
2023-02-14T13:36:22.556Z,35.47
2023-02-14T13:41:29.011Z,33.35
2023-02-14T13:44:02.217Z,28.35
2023-02-14T13:46:51.971Z,28.08
2023-02-14T13:49:30.587Z,34.28
2023-02-14T13:52:01.241Z,32.13
2023-02-14T13:54:38.853Z,31.70
2023-02-14T13:57:26.969Z,29.23
2023-02-14T14:00:44.050Z,28.38
2023-02-14T14:03:17.313Z,28.20
2023-02-14T14:06:06.276Z,28.88
2023-02-14T14:08:42.916Z,32.00
2023-02-14T14:11:32.034Z,32.25
2023-02-14T14:14:02.698Z,29.73
2023-02-14T14:16:35.012Z,28.92
2023-02-14T14:19:10.764Z,30.35
2023-02-14T14:21:40.443Z,30.85
2023-02-14T14:24:23.498Z,29.50
2023-02-14T14:26:59.296Z,31.70
2023-02-14T14:29:31.821Z,30.08
2023-02-14T14:32:01.237Z,30.83
2023-02-14T14:34:31.103Z,27.98
2023-02-14T14:37:06.908Z,30.83
2023-02-14T14:39:36.989Z,27.08
2023-02-14T14:42:10.994Z,30.33
2023-02-14T14:44:47.673Z,34.13
2023-02-14T14:47:24.441Z,29.52
2023-02-14T14:49:58.907Z,33.58
2023-02-14T14:52:37.902Z,29.33
2023-02-14T14:55:11.884Z,35.92
2023-02-14T14:57:41.160Z,38.42
2023-02-14T15:00:24.313Z,32.53
2023-02-14T15:03:04.965Z,29.35
2023-02-14T15:05:37.150Z,34.97
2023-02-14T15:08:21.633Z,32.60
2023-02-14T15:10:54.353Z,35.05
2023-02-14T15:13:46.608Z,33.83
2023-02-14T15:16:19.713Z,34.30
2023-02-14T15:18:48.922Z,33.50
2023-02-14T15:21:19.204Z,38.05
2023-02-14T15:23:47.829Z,36.00
2023-02-14T15:26:19.935Z,35.20
2023-02-14T15:28:56.748Z,35.78
2023-02-14T15:31:29.487Z,37.58
2023-02-14T15:34:00.114Z,33.50
2023-02-14T15:36:31.608Z,37.50
2023-02-14T15:39:01.799Z,35.97
2023-02-14T15:41:30.309Z,35.25
2023-02-14T15:43:59.340Z,39.50
2023-02-14T15:46:33.425Z,42.33
2023-02-14T15:49:10.054Z,38.00
2023-02-14T15:51:40.792Z,40.45
2023-02-14T15:54:19.439Z,40.22
2023-02-14T15:56:50.401Z,41.97
2023-02-14T15:59:21.052Z,43.90
2023-02-14T16:01:55.833Z,43.35
2023-02-14T16:04:27.281Z,39.95
2023-02-14T16:07:17.461Z,47.35
2023-02-14T16:09:45.971Z,41.00
2023-02-14T16:12:31.643Z,46.00
2023-02-14T16:15:11.498Z,45.05
2023-02-14T16:17:44.101Z,45.53
2023-02-14T16:20:25.389Z,48.35
2023-02-14T16:23:10.293Z,42.97
2023-02-14T16:25:41.603Z,45.70
2023-02-14T16:28:09.977Z,42.25
2023-02-14T16:30:39.394Z,40.92
2023-02-14T16:33:08.464Z,46.33
2023-02-14T16:35:36.750Z,45.13
2023-02-14T16:38:06.350Z,51.95
2023-02-14T16:40:34.774Z,57.40
2023-02-14T16:43:04.526Z,51.75
2023-02-14T16:45:32.877Z,54.47
2023-02-14T16:48:01.108Z,59.42
2023-02-14T16:50:29.445Z,47.63
2023-02-14T16:52:58.390Z,49.10
2023-02-14T16:55:30.066Z,52.33
2023-02-14T16:58:01.750Z,42.05
2023-02-14T17:00:30.063Z,42.78
2023-02-14T17:03:04.538Z,48.42
2023-02-14T17:05:34.005Z,42.45
2023-02-14T17:08:02.931Z,41.83
2023-02-14T17:10:34.574Z,48.22
2023-02-14T17:13:05.155Z,44.67
2023-02-14T17:15:34.869Z,48.63
2023-02-14T17:18:08.494Z,50.92
2023-02-14T17:20:37.939Z,52.30
2023-02-14T17:23:06.303Z,66.55
2023-02-14T17:25:36.759Z,54.42
2023-02-14T17:28:05.336Z,50.72
2023-02-14T17:30:37.324Z,55.33
2023-02-14T17:33:06.405Z,55.45
2023-02-14T17:35:35.480Z,66.82
2023-02-14T17:38:03.735Z,59.78
2023-02-14T17:40:32.530Z,54.40
2023-02-14T17:43:02.361Z,52.70
2023-02-14T17:45:30.744Z,54.97
2023-02-14T17:48:02.401Z,56.47
2023-02-14T17:50:30.766Z,56.95
2023-02-14T17:52:59.113Z,55.15
2023-02-14T17:55:27.317Z,62.55
2023-02-14T17:57:55.622Z,57.55
2023-02-14T18:00:25.612Z,57.20
2023-02-14T18:02:56.981Z,57.38
2023-02-14T18:05:25.244Z,51.03
2023-02-14T18:07:53.492Z,66.85
2023-02-14T18:10:24.974Z,66.53
2023-02-14T18:12:53.165Z,68.72
2023-02-14T18:15:21.490Z,76.85
2023-02-14T18:17:58.175Z,63.40
2023-02-14T18:20:31.065Z,65.57
2023-02-14T18:23:07.489Z,66.70
2023-02-14T18:25:41.220Z,61.42
2023-02-14T18:31:09.726Z,66.85
2023-02-14T18:33:50.146Z,71.70
2023-02-14T18:36:21.738Z,68.43
2023-02-14T18:39:01.990Z,67.50
2023-02-14T18:41:41.060Z,74.68
2023-02-14T18:44:23.712Z,77.18
2023-02-14T18:46:52.729Z,69.03
2023-02-14T18:49:30.154Z,67.55
2023-02-14T18:52:07.041Z,104.97
2023-02-14T18:54:41.218Z,79.68
2023-02-14T18:57:12.013Z,94.35
2023-02-14T18:59:45.325Z,101.63
2023-02-14T19:02:14.483Z,80.32
2023-02-14T19:04:59.110Z,82.05
2023-02-14T19:07:44.144Z,91.95
2023-02-14T19:10:16.843Z,77.25
2023-02-14T19:12:48.682Z,68.00
2023-02-14T19:15:19.404Z,73.35
2023-02-14T19:17:54.757Z,77.65
2023-02-14T19:20:53.171Z,70.88
2023-02-14T19:23:40.723Z,68.03
2023-02-14T19:26:30.013Z,74.70
2023-02-14T19:29:27.046Z,68.40
2023-02-14T19:32:45.408Z,69.95
2023-02-14T19:38:57.834Z,73.97
2023-02-14T19:41:46.287Z,71.50
2023-02-14T19:44:20.698Z,77.18
2023-02-14T19:46:50.296Z,70.55
2023-02-14T19:49:47.269Z,69.65
2023-02-14T19:52:34.527Z,69.70
2023-02-14T19:55:41.666Z,73.57
2023-02-14T19:58:33.949Z,83.63
2023-02-14T20:01:30.420Z,78.10
2023-02-14T20:04:26.750Z,72.75
2023-02-14T20:07:21.789Z,73.47
2023-02-14T20:16:22.230Z,77.10
2023-02-14T20:19:26.131Z,83.47
2023-02-14T20:22:03.707Z,77.53
2023-02-14T20:24:59.153Z,75.82
2023-02-14T20:27:59.798Z,76.82
2023-02-14T20:30:40.230Z,78.22
2023-02-14T20:33:30.258Z,74.05
2023-02-14T20:36:17.908Z,84.07
2023-02-14T20:39:01.096Z,84.93
2023-02-14T20:41:51.832Z,77.68
2023-02-14T20:44:36.101Z,77.72
2023-02-14T20:47:25.285Z,77.28
2023-02-14T20:49:58.166Z,83.13
2023-02-14T20:52:41.597Z,82.03
2023-02-14T20:58:35.594Z,76.25
2023-02-14T21:01:44.170Z,77.18
2023-02-14T21:04:32.396Z,88.63
2023-02-14T21:07:10.661Z,92.20
2023-02-14T21:09:49.709Z,77.97
2023-02-14T21:12:36.995Z,85.65
2023-02-14T21:15:20.740Z,77.03
2023-02-14T21:17:58.198Z,76.22
2023-02-14T21:20:43.294Z,75.57
2023-02-14T21:23:31.676Z,86.78
2023-02-14T21:26:33.613Z,78.50
2023-02-14T21:29:12.833Z,64.72
2023-02-14T21:32:03.640Z,88.32
2023-02-14T21:34:57.994Z,77.28
2023-02-14T21:38:03.957Z,73.15
2023-02-14T21:41:07.800Z,74.30
2023-02-14T21:43:56.763Z,82.28
2023-02-14T21:46:31.185Z,78.15
2023-02-14T21:49:26.941Z,75.63
2023-02-14T21:52:09.667Z,78.35
2023-02-14T21:55:07.434Z,91.10
2023-02-14T21:57:42.769Z,82.22
2023-02-14T22:03:34.821Z,74.88
2023-02-14T22:06:18.846Z,87.95
2023-02-14T22:08:58.611Z,79.85
2023-02-14T22:11:45.930Z,97.40
2023-02-14T22:14:34.519Z,87.07
2023-02-14T22:17:26.591Z,85.38
2023-02-14T22:20:17.397Z,85.22
2023-02-14T22:23:24.532Z,88.05
2023-02-14T22:26:26.804Z,74.95
2023-02-14T22:29:29.622Z,90.43
2023-02-14T22:32:11.340Z,93.85
2023-02-14T22:38:08.485Z,83.25
2023-02-14T22:41:02.087Z,83.25
2023-02-14T22:54:16.809Z,89.50
2023-02-14T22:56:55.421Z,79.53
2023-02-14T22:59:48.109Z,91.50
2023-02-14T23:02:17.688Z,76.38
2023-02-14T23:04:52.412Z,82.90
2023-02-14T23:07:46.761Z,79.25
2023-02-14T23:10:39.205Z,81.35
2023-02-14T23:16:45.913Z,95.18
2023-02-14T23:19:47.288Z,85.53
2023-02-14T23:22:31.347Z,80.10
2023-02-14T23:25:23.639Z,86.78
2023-02-14T23:31:11.031Z,75.00
2023-02-14T23:33:55.098Z,83.47
2023-02-14T23:36:35.732Z,86.30
2023-02-14T23:42:14.198Z,96.70
2023-02-14T23:48:32.722Z,95.15
2023-02-14T23:51:23.920Z,89.90
2023-02-14T23:54:21.989Z,87.45
